Time;durP1;ratioP1;P1;durP2;ratioP2;P2;SDS_P1;SDS_P2;PMS_P1;PMS_P2;Temp;Humidity;BMP_temperature;BMP_pressure;BME280_temperature;BME280_humidity;BME280_pressure;Samples;Min_cycle;Max_cycle;Signal;HPM_P1;HPM_P2
2022/01/13 00:02:28;;;;;;;;;;;;;;;-3.87;76.56;98622.41;5057130;28;20423;-74
2022/01/13 00:04:54;;;;;;;;;;;;;;;-3.89;76.93;98626.75;5033822;28;19961;-73
2022/01/13 00:07:20;;;;;;;;;;;;;;;-3.87;77.08;98631.84;5051068;28;19959;-73
2022/01/13 00:09:45;;;;;;;;;;;;;;;-3.87;76.37;98626.69;5052453;28;19950;-73
2022/01/13 00:12:13;;;;;;;;;;;;;;;-3.87;76.25;98624.13;5053705;28;20443;-74
2022/01/13 00:15:06;;;;;;;;;;;;;;;-3.88;76.67;98628.44;5053930;28;20411;-73
2022/01/13 00:17:43;;;;;;;;;;;;;;;-3.84;76.73;98625.72;5047793;28;19979;-73
2022/01/13 00:23:38;;;;;;;;;;;;;;;-3.88;76.81;98623.31;5052365;28;19978;-73
2022/01/13 00:25:35;;;;;;;;;;;;;;;-3.92;76.70;98634.63;5054170;28;19947;-73
2022/01/13 00:28:06;;;;;;;;;;;;;;;-3.94;76.14;98635.59;5024081;28;19959;-73
2022/01/13 00:30:32;;;;;;;;;;;;;;;-3.96;76.87;98632.28;5056096;28;19959;-73
2022/01/13 00:32:58;;;;;;;;;;;;;;;-3.95;77.10;98639.91;5059463;28;19959;-73
2022/01/13 00:35:24;;;;;;;;;;;;;;;-3.94;77.45;98641.56;5053443;28;19946;-73
2022/01/13 00:37:50;;;;;;;;;;;;;;;-3.93;77.36;98635.50;5050726;28;20461;-73
2022/01/13 00:40:16;;;;;;;;;;;;;;;-3.93;77.69;98638.06;5066158;28;20046;-74
2022/01/13 00:42:42;;;;;;;;;;;;;;;-3.92;76.94;98638.94;5046559;28;19948;-73
2022/01/13 00:45:13;;;;;;;;;;;;;;;-3.93;76.40;98634.69;5060720;28;19972;-73
2022/01/13 00:47:40;;;;;;;;;;;;;;;-3.93;76.52;98634.69;5065923;28;20325;-73
2022/01/13 00:50:06;;;;;;;;;;;;;;;-3.97;76.52;98634.03;5055788;28;19978;-73
2022/01/13 00:52:32;;;;;;;;;;;;;;;-3.99;76.52;98633.25;5052726;28;19981;-73
2022/01/13 00:55:01;;;;;;;;;;;;;;;-4.00;76.85;98646.16;5056739;28;20432;-73
2022/01/13 00:57:28;;;;;;;;;;;;;;;-4.01;76.86;98649.59;5064678;28;20419;-73
2022/01/13 00:59:54;;;;;;;;;;;;;;;-4.02;76.65;98650.50;5051743;28;19962;-74
2022/01/13 01:02:19;;;;;;;;;;;;;;;-4.03;76.55;98644.56;5053946;28;20050;-73
2022/01/13 01:04:45;;;;;;;;;;;;;;;-4.02;76.58;98646.22;5062843;28;19973;-73
2022/01/13 01:07:11;;;;;;;;;;;;;;;-4.02;76.92;98648.78;5054955;28;20361;-73
2022/01/13 01:09:40;;;;;;;;;;;;;;;-4.04;77.05;98650.56;5063025;28;19983;-73
2022/01/13 01:12:09;;;;;;;;;;;;;;;-4.08;76.73;98649.88;5051712;28;19963;-74
2022/01/13 01:14:40;;;;;;;;;;;;;;;-4.10;76.94;98651.69;5050507;28;19964;-73
2022/01/13 01:17:06;;;;;;;;;;;;;;;-4.11;76.08;98649.22;5062988;28;19984;-73
2022/01/13 01:19:32;;;;;;;;;;;;;;;-4.12;76.34;98650.91;5054386;28;20409;-73
2022/01/13 01:27:17;;;;;;;;;;;;;;;-4.13;75.91;98658.69;5058034;28;19946;-74
2022/01/13 01:29:51;;;;;;;;;;;;;;;-4.14;76.20;98657.03;5060391;28;19966;-75
2022/01/13 01:32:17;;;;;;;;;;;;;;;-4.16;76.44;98659.69;5054449;28;19955;-76
2022/01/13 01:37:15;;;;;;;;;;;;;;;-4.19;76.73;98675.19;5057973;28;20054;-73
2022/01/13 01:39:42;;;;;;;;;;;;;;;-4.19;76.38;98676.91;5064304;28;19968;-73
2022/01/13 01:42:08;;;;;;;;;;;;;;;-4.19;76.39;98679.47;5058100;28;20439;-73
2022/01/13 01:44:39;;;;;;;;;;;;;;;-4.20;76.22;98685.50;5049619;28;19957;-74
2022/01/13 01:47:08;;;;;;;;;;;;;;;-4.22;76.10;98693.28;5043370;28;19967;-74
2022/01/13 01:49:39;;;;;;;;;;;;;;;-4.21;76.70;98689.78;5053716;28;19969;-76
2022/01/13 01:52:06;;;;;;;;;;;;;;;-4.22;76.78;98680.47;5062239;28;19974;-73
2022/01/13 01:54:32;;;;;;;;;;;;;;;-4.23;76.68;98683.91;5054653;28;19960;-73
2022/01/13 01:56:58;;;;;;;;;;;;;;;-4.23;76.92;98686.47;5050018;28;20357;-73
2022/01/13 01:59:28;;;;;;;;;;;;;;;-4.23;77.25;98678.78;5046772;28;20042;-73
2022/01/13 02:01:54;;;;;;;;;;;;;;;-4.21;77.29;98683.84;5054757;28;19972;-73
2022/01/13 02:04:20;;;;;;;;;;;;;;;-4.21;77.30;98689.78;5052098;28;19952;-74
2022/01/13 02:06:46;;;;;;;;;;;;;;;-4.20;77.00;98701.72;5052271;28;19963;-73
2022/01/13 02:09:14;;;;;;;;;;;;;;;-4.20;77.29;98700.88;5064838;28;20322;-73
2022/01/13 02:11:45;;;;;;;;;;;;;;;-4.20;77.43;98704.28;5047810;28;19962;-74
2022/01/13 02:16:56;;;;;;;;;;;;;;;-4.14;78.42;98691.16;5054728;28;19981;-74
2022/01/13 02:19:24;;;;;;;;;;;;;;;-4.11;78.60;98693.59;5074029;28;19952;-74
2022/01/13 02:21:50;;;;;;;;;;;;;;;-4.07;79.36;98686.59;5049519;28;19964;-73
2022/01/13 02:24:16;;;;;;;;;;;;;;;-4.04;79.34;98688.19;5055178;28;19957;-73
2022/01/13 02:26:42;;;;;;;;;;;;;;;-4.00;79.45;98682.03;5035230;28;20298;-73
2022/01/13 02:29:08;;;;;;;;;;;;;;;-3.96;79.57;98671.56;5064157;28;20000;-74
2022/01/13 02:31:34;;;;;;;;;;;;;;;-3.92;79.47;98675.63;5047576;28;20309;-74
2022/01/13 02:34:00;;;;;;;;;;;;;;;-3.87;80.33;98670.28;5052338;28;19957;-73
2022/01/13 02:36:27;;;;;;;;;;;;;;;-3.84;80.43;98671.88;5054678;28;19968;-73
2022/01/13 02:38:54;;;;;;;;;;;;;;;-3.87;80.71;98677.97;5052176;28;19955;-73
2022/01/13 02:41:22;;;;;;;;;;;;;;;-3.91;80.26;98668.78;5050245;28;19969;-73
2022/01/13 02:43:49;;;;;;;;;;;;;;;-3.93;80.57;98663.69;5060894;28;19959;-73
2022/01/13 02:46:29;;;;;;;;;;;;;;;-3.98;81.27;98654.59;5057594;28;19955;-73
2022/01/13 02:48:56;;;;;;;;;;;;;;;-3.98;81.09;98657.97;5059990;28;19957;-72
2022/01/13 02:51:21;;;;;;;;;;;;;;;-3.96;81.76;98652.78;5046337;28;20338;-73
2022/01/13 02:53:47;;;;;;;;;;;;;;;-3.97;81.25;98651.97;5055673;28;19964;-72
2022/01/13 02:56:13;;;;;;;;;;;;;;;-3.99;81.08;98647.78;5062821;28;19994;-73
2022/01/13 02:58:39;;;;;;;;;;;;;;;-4.03;81.53;98638.59;5065223;28;19954;-73
2022/01/13 03:01:05;;;;;;;;;;;;;;;-4.06;81.59;98654.94;5050512;28;19964;-74
2022/01/13 03:03:34;;;;;;;;;;;;;;;-4.06;81.45;98651.56;5047450;28;19972;-73
2022/01/13 03:06:10;;;;;;;;;;;;;;;-4.06;80.99;98644.69;5051500;28;19956;-73
2022/01/13 03:08:36;;;;;;;;;;;;;;;-4.08;80.87;98654.19;5054803;28;19977;-73
2022/01/13 03:11:02;;;;;;;;;;;;;;;-4.13;80.41;98648.44;5055831;28;20424;-73
2022/01/13 03:13:29;;;;;;;;;;;;;;;-4.15;81.19;98651.06;5051576;28;20329;-73
2022/01/13 03:15:56;;;;;;;;;;;;;;;-4.15;80.30;98643.38;5054060;28;19964;-73
2022/01/13 03:18:22;;;;;;;;;;;;;;;-4.18;81.32;98646.09;5049102;28;19968;-73
2022/01/13 03:20:47;;;;;;;;;;;;;;;-4.18;80.77;98650.38;5044783;28;19966;-72
2022/01/13 03:23:17;;;;;;;;;;;;;;;-4.15;80.85;98652.81;5060804;28;19953;-72
2022/01/13 03:25:47;;;;;;;;;;;;;;;-4.14;80.61;98647.59;5051594;28;20418;-72
2022/01/13 03:28:28;;;;;;;;;;;;;;;-4.11;80.63;98652.59;5055013;28;20329;-72
2022/01/13 03:30:54;;;;;;;;;;;;;;;-4.06;80.44;98649.00;5049632;28;19954;-72
2022/01/13 03:33:20;;;;;;;;;;;;;;;-4.02;80.05;98650.50;5055035;28;19973;-72
2022/01/13 03:35:45;;;;;;;;;;;;;;;-4.02;79.88;98653.91;5052043;28;19958;-72
2022/01/13 03:38:11;;;;;;;;;;;;;;;-4.02;79.89;98651.34;5051914;28;20340;-72
2022/01/13 03:40:37;;;;;;;;;;;;;;;-3.99;79.39;98642.66;5043332;28;20046;-72
2022/01/13 03:43:04;;;;;;;;;;;;;;;-3.98;79.29;98636.66;5063339;28;19962;-72
2022/01/13 03:45:32;;;;;;;;;;;;;;;-3.96;78.86;98642.53;5060287;28;19964;-72
2022/01/13 03:47:58;;;;;;;;;;;;;;;-3.97;78.81;98633.16;5034461;28;19960;-72
2022/01/13 03:50:24;;;;;;;;;;;;;;;-3.95;78.58;98639.91;5052825;28;19953;-72
2022/01/13 03:53:02;;;;;;;;;;;;;;;-3.94;78.95;98633.88;5033737;28;19965;-72
2022/01/13 03:55:40;;;;;;;;;;;;;;;-3.93;78.64;98627.81;5054870;28;19950;-72
2022/01/13 03:58:15;;;;;;;;;;;;;;;-3.94;78.84;98618.47;5034090;28;19980;-71
2022/01/13 04:01:16;;;;;;;;;;;;;;;-3.92;78.70;98626.09;5058506;28;19949;-72
2022/01/13 04:03:42;;;;;;;;;;;;;;;-3.93;78.51;98632.13;5058692;28;19961;-73
2022/01/13 04:06:08;;;;;;;;;;;;;;;-3.94;78.94;98622.78;5050057;28;19949;-72
2022/01/13 04:08:34;;;;;;;;;;;;;;;-3.93;79.09;98621.88;5053919;28;19958;-72
2022/01/13 04:11:03;;;;;;;;;;;;;;;-3.92;79.30;98624.38;5051051;28;19960;-72
2022/01/13 04:13:56;;;;;;;;;;;;;;;-3.92;78.88;98632.06;5063306;28;19960;-72
2022/01/13 04:16:27;;;;;;;;;;;;;;;-3.91;78.95;98617.50;5070593;28;19954;-73
2022/01/13 04:18:56;;;;;;;;;;;;;;;-3.92;78.80;98616.69;5053851;28;20379;-73
2022/01/13 04:21:22;;;;;;;;;;;;;;;-3.88;78.79;98619.94;5050250;28;19959;-73
2022/01/13 04:23:49;;;;;;;;;;;;;;;-3.85;79.00;98621.50;5060841;28;19967;-74
2022/01/13 04:26:18;;;;;;;;;;;;;;;-3.85;79.07;98614.66;5058819;28;19958;-73
2022/01/13 04:28:45;;;;;;;;;;;;;;;-3.84;78.91;98623.16;5050750;28;19963;-73
2022/01/13 04:31:11;;;;;;;;;;;;;;;-3.83;78.84;98612.00;5057400;28;19956;-73
2022/01/13 04:33:38;;;;;;;;;;;;;;;-3.83;79.27;98614.56;5061880;28;20558;-73
2022/01/13 04:36:05;;;;;;;;;;;;;;;-3.82;79.13;98618.78;5055614;28;19954;-73
2022/01/13 04:38:31;;;;;;;;;;;;;;;-3.81;79.17;98613.59;5059853;28;19969;-73
2022/01/13 04:40:59;;;;;;;;;;;;;;;-3.82;79.05;98613.66;5046095;28;20359;-73
2022/01/13 04:43:26;;;;;;;;;;;;;;;-3.82;79.19;98616.22;5053227;28;19954;-73
2022/01/13 04:45:52;;;;;;;;;;;;;;;-3.83;78.81;98610.28;5067640;28;19953;-73
2022/01/13 04:48:18;;;;;;;;;;;;;;;-3.83;78.32;98607.72;5064450;28;19963;-73
2022/01/13 04:50:44;;;;;;;;;;;;;;;-3.85;78.55;98612.09;5058226;28;19981;-73
2022/01/13 04:53:10;;;;;;;;;;;;;;;-3.86;78.55;98610.44;5050809;28;19974;-73
2022/01/13 04:55:37;;;;;;;;;;;;;;;-3.88;78.26;98609.69;5054578;28;19954;-73
2022/01/13 04:58:04;;;;;;;;;;;;;;;-3.93;78.23;98607.31;5032492;28;19975;-73
2022/01/13 05:00:31;;;;;;;;;;;;;;;-3.97;78.51;98610.97;5056354;28;19953;-73
2022/01/13 05:02:57;;;;;;;;;;;;;;;-4.00;78.50;98628.19;5057442;28;19956;-73
2022/01/13 05:05:23;;;;;;;;;;;;;;;-4.07;78.14;98625.09;5058400;28;19953;-73
2022/01/13 05:07:49;;;;;;;;;;;;;;;-4.15;78.48;98629.75;5052513;28;19950;-73
2022/01/13 05:10:15;;;;;;;;;;;;;;;-4.17;78.17;98627.25;5034962;28;20340;-73
2022/01/13 05:12:44;;;;;;;;;;;;;;;-4.16;78.10;98633.22;5063215;28;20345;-73
2022/01/13 05:15:15;;;;;;;;;;;;;;;-4.16;78.18;98633.22;5057531;28;19960;-73
2022/01/13 05:18:01;;;;;;;;;;;;;;;-4.14;78.23;98636.53;5052288;28;19970;-73
2022/01/13 05:20:36;;;;;;;;;;;;;;;-4.15;78.32;98645.13;5045203;28;19968;-73
2022/01/13 05:23:02;;;;;;;;;;;;;;;-4.15;77.57;98650.25;5057880;28;19956;-73
2022/01/13 05:25:28;;;;;;;;;;;;;;;-4.15;77.62;98647.69;5064009;28;19958;-73
2022/01/13 05:27:54;;;;;;;;;;;;;;;-4.17;78.10;98640.06;5058319;28;19994;-73
2022/01/13 05:30:20;;;;;;;;;;;;;;;-4.19;78.28;98634.19;5051767;28;19954;-73
2022/01/13 05:32:46;;;;;;;;;;;;;;;-4.19;78.08;98629.06;5063156;28;19956;-73
2022/01/13 05:35:13;;;;;;;;;;;;;;;-4.22;77.79;98634.34;5056228;28;20291;-73
2022/01/13 05:37:39;;;;;;;;;;;;;;;-4.22;77.93;98636.03;5063193;28;20343;-73
2022/01/13 05:40:05;;;;;;;;;;;;;;;-4.24;77.71;98638.69;5043277;28;20001;-73
2022/01/13 05:42:31;;;;;;;;;;;;;;;-4.25;77.87;98642.16;5052844;28;19966;-73
2022/01/13 05:44:59;;;;;;;;;;;;;;;-4.26;77.96;98639.66;5051598;28;19958;-73
2022/01/13 05:47:25;;;;;;;;;;;;;;;-4.25;77.42;98652.41;5059340;28;19964;-74
2022/01/13 05:49:51;;;;;;;;;;;;;;;-4.24;77.69;98653.22;5063187;28;20037;-73
2022/01/13 05:52:17;;;;;;;;;;;;;;;-4.26;77.88;98649.91;5053784;28;19977;-73
2022/01/13 05:54:43;;;;;;;;;;;;;;;-4.30;77.48;98649.22;5064220;28;20467;-73
2022/01/13 05:57:08;;;;;;;;;;;;;;;-4.31;77.10;98657.81;5044121;28;19977;-73
2022/01/13 05:59:35;;;;;;;;;;;;;;;-4.33;77.37;98655.31;5057273;28;19982;-73
2022/01/13 06:02:02;;;;;;;;;;;;;;;-4.36;77.00;98652.91;5052760;28;20305;-73
2022/01/13 06:04:28;;;;;;;;;;;;;;;-4.36;77.47;98657.19;5054460;28;19963;-73
2022/01/13 06:06:53;;;;;;;;;;;;;;;-4.38;77.57;98653.88;5059688;28;19973;-73
2022/01/13 06:09:19;;;;;;;;;;;;;;;-4.40;76.94;98648.81;5046765;28;20326;-73
2022/01/13 06:11:56;;;;;;;;;;;;;;;-4.42;77.32;98652.34;5047260;28;20345;-73
2022/01/13 06:14:22;;;;;;;;;;;;;;;-4.45;76.96;98655.03;5047471;28;20410;-73
2022/01/13 06:16:47;;;;;;;;;;;;;;;-4.50;77.26;98648.38;5058252;28;19967;-73
2022/01/13 06:19:13;;;;;;;;;;;;;;;-4.52;76.77;98654.47;5061642;28;20031;-73
2022/01/13 06:21:39;;;;;;;;;;;;;;;-4.54;76.91;98656.28;5027092;28;19956;-74
2022/01/13 06:24:05;;;;;;;;;;;;;;;-4.56;76.30;98646.09;5054225;28;19955;-73
2022/01/13 06:26:31;;;;;;;;;;;;;;;-4.57;76.85;98649.56;5064257;28;20372;-73
2022/01/13 06:28:57;;;;;;;;;;;;;;;-4.58;76.93;98645.34;5054089;28;19957;-74
2022/01/13 06:31:23;;;;;;;;;;;;;;;-4.60;76.97;98648.88;5046854;28;20043;-73
2022/01/13 06:33:49;;;;;;;;;;;;;;;-4.61;76.51;98642.94;5050997;28;19957;-74
2022/01/13 06:36:14;;;;;;;;;;;;;;;-4.62;76.55;98651.53;5056316;28;19971;-74
2022/01/13 06:38:41;;;;;;;;;;;;;;;-4.62;76.66;98654.09;5058480;28;19976;-74
2022/01/13 06:41:07;;;;;;;;;;;;;;;-4.63;77.44;98654.16;5034972;28;19955;-73
2022/01/13 06:43:33;;;;;;;;;;;;;;;-4.63;77.20;98661.81;5055332;28;19955;-73
2022/01/13 06:45:59;;;;;;;;;;;;;;;-4.63;76.93;98662.66;5043257;28;20011;-74
2022/01/13 06:48:25;;;;;;;;;;;;;;;-4.65;77.25;98666.19;5050015;28;20408;-74
2022/01/13 06:50:51;;;;;;;;;;;;;;;-4.22;93.18;98661.66;5049638;28;20110;-74
2022/01/13 06:53:20;;;;;;;;;;;;;;;-4.17;84.59;98665.69;5052315;28;19964;-74
2022/01/13 06:55:46;;;;;;;;;;;;;;;-4.19;80.48;98667.50;5049540;28;19959;-73
2022/01/13 06:58:12;;;;;;;;;;;;;;;-4.24;78.88;98681.41;5044558;28;19964;-73
2022/01/13 07:00:38;;;;;;;;;;;;;;;-4.32;78.08;98684.34;5067259;28;20404;-73
2022/01/13 07:03:04;;;;;;;;;;;;;;;-4.35;77.86;98681.91;5054312;28;19959;-73
2022/01/13 07:05:30;;;;;;;;;;;;;;;-4.39;77.26;98681.22;5048274;28;20342;-73
2022/01/13 07:07:56;;;;;;;;;;;;;;;-4.43;77.71;98689.94;5054413;28;19966;-73
2022/01/13 07:10:23;;;;;;;;;;;;;;;-4.51;77.96;98687.72;5059929;28;19958;-73
2022/01/13 07:12:48;;;;;;;;;;;;;;;-4.41;91.67;98688.16;5029331;28;19962;-73
2022/01/13 07:15:15;;;;;;;;;;;;;;;-3.01;100.00;98680.66;5053190;28;19952;-74
2022/01/13 07:17:41;;;;;;;;;;;;;;;-1.55;100.00;98685.75;5056564;28;19976;-74
2022/01/13 07:20:07;;;;;;;;;;;;;;;-0.75;100.00;98678.56;5061984;28;20317;-74
2022/01/13 07:22:33;;;;;;;;;;;;;;;-0.90;100.00;98685.44;5045232;28;19966;-73
2022/01/13 07:24:59;;;;;;;;;;;;;;;-1.34;79.92;98692.25;5046243;28;20377;-73
2022/01/13 07:27:25;;;;;;;;;;;;;;;-1.78;76.56;98695.56;5057222;28;19954;-74
2022/01/13 07:29:51;;;;;;;;;;;;;;;-2.16;75.61;98703.63;5054480;28;19959;-73
2022/01/13 07:32:17;;;;;;;;;;;;;;;-2.47;75.33;98704.41;5055566;28;19949;-73
2022/01/13 07:34:42;;;;;;;;;;;;;;;-2.74;75.51;98715.19;5055131;28;20059;-73
2022/01/13 07:37:08;;;;;;;;;;;;;;;-2.98;75.28;98703.59;5058710;28;19966;-73
2022/01/13 07:39:38;;;;;;;;;;;;;;;-3.14;75.78;98713.81;5040788;28;19960;-74
2022/01/13 07:42:04;;;;;;;;;;;;;;;-3.28;75.91;98706.78;5062468;28;20440;-74
2022/01/13 07:44:30;;;;;;;;;;;;;;;-3.39;76.43;98711.63;5053396;28;19953;-73
2022/01/13 07:46:58;;;;;;;;;;;;;;;-3.49;76.35;98716.34;5041814;28;19954;-73
2022/01/13 07:49:24;;;;;;;;;;;;;;;-3.61;76.88;98727.19;5057343;28;19973;-73
2022/01/13 07:51:50;;;;;;;;;;;;;;;-3.70;76.99;98728.47;5058581;28;20447;-73
2022/01/13 07:54:16;;;;;;;;;;;;;;;-3.74;77.23;98732.94;5041393;28;20325;-74
2022/01/13 07:56:42;;;;;;;;;;;;;;;-3.70;77.70;98733.59;5056173;28;19967;-73
2022/01/13 07:59:08;;;;;;;;;;;;;;;-3.59;76.83;98728.81;5059304;28;19973;-74
2022/01/13 08:01:34;;;;;;;;;;;;;;;-3.49;76.28;98731.75;5056977;28;19964;-73
2022/01/13 08:04:00;;;;;;;;;;;;;;;-3.36;75.81;98730.28;5048571;28;19961;-74
2022/01/13 08:06:26;;;;;;;;;;;;;;;-3.23;75.63;98727.06;5055862;28;19961;-73
2022/01/13 08:08:52;;;;;;;;;;;;;;;-3.00;74.96;98718.25;5055281;28;19960;-74
2022/01/13 08:11:18;;;;;;;;;;;;;;;-2.78;75.26;98716.25;5076837;28;19957;-74
2022/01/13 08:13:44;;;;;;;;;;;;;;;-2.55;74.25;98711.69;5051986;28;19966;-74
2022/01/13 08:16:10;;;;;;;;;;;;;;;-2.33;73.87;98716.53;5031403;28;19955;-74
2022/01/13 08:21:23;;;;;;;;;;;;;;;-1.99;72.99;98718.16;5047949;28;19973;-75
2022/01/13 08:23:50;;;;;;;;;;;;;;;-1.80;72.68;98717.97;5045668;28;19958;-73
2022/01/13 08:26:17;;;;;;;;;;;;;;;-1.59;72.42;98717.72;5060572;28;19958;-73
2022/01/13 08:28:43;;;;;;;;;;;;;;;-1.40;71.04;98725.25;5062515;28;19946;-74
2022/01/13 08:31:09;;;;;;;;;;;;;;;-1.40;70.96;98720.09;5052038;28;19993;-73
2022/01/13 08:33:35;;;;;;;;;;;;;;;-1.33;70.54;98711.09;5052150;28;19970;-73
2022/01/13 08:36:01;;;;;;;;;;;;;;;-1.33;69.69;98717.06;5045961;28;20335;-74
2022/01/13 08:38:27;;;;;;;;;;;;;;;-1.30;70.80;98710.91;5074937;28;19973;-74
2022/01/13 08:40:54;;;;;;;;;;;;;;;-1.23;70.47;98714.81;5053314;28;19965;-74
2022/01/13 08:43:21;;;;;;;;;;;;;;;-1.14;69.64;98713.44;5041843;28;20316;-74
2022/01/13 08:45:47;;;;;;;;;;;;;;;-1.02;70.69;98710.16;5051122;28;20330;-73
2022/01/13 08:48:14;;;;;;;;;;;;;;;-0.87;69.49;98716.16;5066174;28;19960;-74
2022/01/13 08:50:40;;;;;;;;;;;;;;;-0.78;69.63;98713.03;5045450;28;19985;-74
2022/01/13 08:53:06;;;;;;;;;;;;;;;-0.62;70.10;98705.25;5049135;28;20307;-73
2022/01/13 08:55:33;;;;;;;;;;;;;;;-0.47;69.83;98709.47;5059167;28;19970;-73
2022/01/13 08:57:59;;;;;;;;;;;;;;;-0.34;69.87;98711.31;5054460;28;19958;-74
2022/01/13 09:00:25;;;;;;;;;;;;;;;-0.23;69.68;98711.50;5061473;28;20409;-73
2022/01/13 09:02:51;;;;;;;;;;;;;;;-0.12;69.59;98713.44;5050869;28;19975;-75
2022/01/13 09:05:18;;;;;;;;;;;;;;;-0.02;69.26;98714.50;5051411;28;19964;-73
2022/01/13 09:07:44;;;;;;;;;;;;;;;0.11;68.91;98707.66;5068640;28;19957;-73
2022/01/13 09:10:11;;;;;;;;;;;;;;;0.25;69.02;98705.94;5044504;28;20401;-73
2022/01/13 09:12:37;;;;;;;;;;;;;;;0.26;67.94;98708.44;5066573;28;19977;-73
2022/01/13 09:15:15;;;;;;;;;;;;;;;0.27;67.49;98711.84;5061171;28;19958;-75
2022/01/13 09:17:42;;;;;;;;;;;;;;;0.15;69.15;98714.28;5037009;28;19974;-74
2022/01/13 09:20:12;;;;;;;;;;;;;;;-0.01;68.56;98713.56;5054304;28;19979;-73
2022/01/13 09:22:39;;;;;;;;;;;;;;;0.07;68.78;98711.34;5038672;28;19963;-73
2022/01/13 09:25:07;;;;;;;;;;;;;;;0.01;68.79;98716.88;5055496;28;19959;-74
2022/01/13 09:27:33;;;;;;;;;;;;;;;0.02;69.57;98725.44;5052261;28;19962;-74
2022/01/13 09:30:00;;;;;;;;;;;;;;;0.18;69.21;98723.56;5049046;28;19967;-74
2022/01/13 09:32:26;;;;;;;;;;;;;;;0.27;67.64;98724.75;5034800;28;19956;-73
2022/01/13 09:34:52;;;;;;;;;;;;;;;0.09;68.71;98724.16;5037447;28;19970;-74
2022/01/13 09:37:17;;;;;;;;;;;;;;;0.01;67.88;98716.06;5063716;28;19981;-73
2022/01/13 09:39:43;;;;;;;;;;;;;;;-0.11;68.53;98710.72;5057402;28;19980;-76
2022/01/13 09:42:09;;;;;;;;;;;;;;;-0.08;68.28;98710.56;5052011;28;19960;-74
2022/01/13 09:44:35;;;;;;;;;;;;;;;-0.09;68.82;98713.22;5057444;28;19956;-73
2022/01/13 09:47:04;;;;;;;;;;;;;;;-0.01;69.06;98711.00;5055227;28;20519;-73
2022/01/13 09:49:30;;;;;;;;;;;;;;;-0.12;68.07;98700.53;5049460;28;19963;-73
2022/01/13 09:51:56;;;;;;;;;;;;;;;-0.18;69.35;98703.47;5058441;28;19980;-73
2022/01/13 09:54:22;;;;;;;;;;;;;;;-0.12;69.65;98703.94;5064552;28;19955;-74
2022/01/13 09:56:48;;;;;;;;;;;;;;;-0.10;68.77;98704.66;5055191;28;19963;-73
2022/01/13 09:59:14;;;;;;;;;;;;;;;-0.13;68.36;98701.44;5044041;28;19966;-74
2022/01/13 10:01:40;;;;;;;;;;;;;;;-0.15;69.47;98692.97;5055498;28;19965;-74
2022/01/13 10:04:06;;;;;;;;;;;;;;;-0.21;68.84;98691.59;5057743;28;19963;-73
2022/01/13 10:06:40;;;;;;;;;;;;;;;-0.19;70.19;98689.72;5057673;28;20398;-73
2022/01/13 10:09:06;;;;;;;;;;;;;;;-0.17;68.98;98682.72;5055933;28;19963;-73
2022/01/13 10:11:34;;;;;;;;;;;;;;;-0.12;69.80;98691.03;5060038;28;19966;-73
2022/01/13 10:14:03;;;;;;;;;;;;;;;-0.08;68.99;98686.53;5053740;28;19958;-73
2022/01/13 10:16:29;;;;;;;;;;;;;;;-0.16;69.53;98679.25;5047211;28;19953;-73
2022/01/13 10:18:55;;;;;;;;;;;;;;;0.02;69.88;98666.94;5051865;28;19995;-73
2022/01/13 10:21:21;;;;;;;;;;;;;;;0.33;69.40;98677.91;5061701;28;19959;-73
2022/01/13 10:24:06;;;;;;;;;;;;;;;0.63;69.06;98663.94;5055011;28;19967;-73
2022/01/13 10:26:34;;;;;;;;;;;;;;;0.79;65.06;98665.41;5061725;28;19960;-74
2022/01/13 10:29:00;;;;;;;;;;;;;;;0.71;67.57;98665.09;5056671;28;19990;-73
2022/01/13 10:31:44;;;;;;;;;;;;;;;0.67;68.28;98666.22;5054199;28;20432;-74
2022/01/13 10:34:21;;;;;;;;;;;;;;;0.60;68.49;98660.63;5052030;28;19967;-73
2022/01/13 10:37:00;;;;;;;;;;;;;;;0.49;69.46;98665.66;5046753;28;19975;-75
2022/01/13 10:39:45;;;;;;;;;;;;;;;0.56;69.35;98668.69;5056862;28;19969;-74
2022/01/13 10:42:14;;;;;;;;;;;;;;;0.81;69.80;98667.91;5054483;28;20305;-74
2022/01/13 10:44:39;;;;;;;;;;;;;;;1.02;67.43;98665.66;5035349;28;19957;-73
2022/01/13 10:47:05;;;;;;;;;;;;;;;1.15;68.26;98673.41;5068105;28;19990;-73
2022/01/13 10:49:32;;;;;;;;;;;;;;;1.31;67.09;98668.03;5050996;28;19970;-73
2022/01/13 10:52:21;;;;;;;;;;;;;;;1.40;67.60;98664.81;5055554;28;19995;-73
2022/01/13 10:54:47;;;;;;;;;;;;;;;1.33;66.62;98664.41;5053304;28;19969;-74
2022/01/13 10:57:16;;;;;;;;;;;;;;;1.34;66.80;98663.44;5044442;28;19973;-74
2022/01/13 10:59:43;;;;;;;;;;;;;;;1.29;67.28;98668.13;5063783;28;20471;-73
2022/01/13 11:02:10;;;;;;;;;;;;;;;1.16;66.73;98670.72;5060503;28;20346;-73
2022/01/13 11:04:37;;;;;;;;;;;;;;;1.12;67.44;98668.44;5053869;28;19963;-73
2022/01/13 11:07:11;;;;;;;;;;;;;;;1.13;66.90;98672.69;5047789;28;19952;-74
2022/01/13 11:09:42;;;;;;;;;;;;;;;1.24;69.21;98679.69;5061347;28;20331;-73
2022/01/13 11:12:12;;;;;;;;;;;;;;;1.18;67.29;98673.22;5060400;28;20418;-73
2022/01/13 11:14:42;;;;;;;;;;;;;;;1.09;68.20;98671.22;5054995;28;19964;-73
2022/01/13 11:17:10;;;;;;;;;;;;;;;1.18;67.75;98675.78;5041448;28;20331;-74
2022/01/13 11:19:41;;;;;;;;;;;;;;;1.34;67.32;98667.81;5024514;28;19981;-73
2022/01/13 11:22:09;;;;;;;;;;;;;;;1.52;67.50;98666.56;5055129;28;19952;-74
2022/01/13 11:24:36;;;;;;;;;;;;;;;1.57;65.79;98658.47;5055433;28;19956;-74
2022/01/13 11:27:02;;;;;;;;;;;;;;;1.70;66.67;98667.06;5057727;28;19956;-73
2022/01/13 11:29:28;;;;;;;;;;;;;;;1.94;67.93;98668.84;5058440;28;19961;-74
2022/01/13 11:31:56;;;;;;;;;;;;;;;2.16;66.75;98670.72;5042338;28;19963;-73
2022/01/13 11:34:22;;;;;;;;;;;;;;;2.28;65.60;98674.19;5058842;28;19960;-73
2022/01/13 11:36:48;;;;;;;;;;;;;;;2.35;65.08;98670.22;5054465;28;20377;-73
2022/01/13 11:39:14;;;;;;;;;;;;;;;2.40;64.99;98666.38;5050587;28;20359;-74
2022/01/13 11:42:06;;;;;;;;;;;;;;;2.54;66.30;98670.56;5051366;28;19963;-74
2022/01/13 11:44:33;;;;;;;;;;;;;;;2.69;64.94;98663.44;5042615;28;19965;-74
2022/01/13 11:46:59;;;;;;;;;;;;;;;2.62;65.48;98668.25;5054557;28;20311;-73
2022/01/13 11:49:40;;;;;;;;;;;;;;;2.63;65.37;98662.09;5066210;28;19977;-74
2022/01/13 11:52:15;;;;;;;;;;;;;;;2.73;65.55;98661.41;5058086;28;19980;-73
2022/01/13 11:54:41;;;;;;;;;;;;;;;2.82;65.55;98658.16;5045866;28;19972;-74
2022/01/13 11:57:09;;;;;;;;;;;;;;;2.89;64.60;98663.69;5046311;28;19970;-74
2022/01/13 11:59:35;;;;;;;;;;;;;;;2.89;64.94;98658.53;5053011;28;19994;-74
2022/01/13 12:02:19;;;;;;;;;;;;;;;2.93;65.05;98650.41;5049382;28;19961;-74
2022/01/13 12:04:59;;;;;;;;;;;;;;;2.97;63.76;98648.41;5035691;28;20022;-73
2022/01/13 12:07:35;;;;;;;;;;;;;;;2.94;64.87;98657.25;5061807;28;19955;-74
2022/01/13 12:10:03;;;;;;;;;;;;;;;2.94;64.41;98657.25;5052697;28;19968;-73
2022/01/13 12:12:31;;;;;;;;;;;;;;;2.93;63.86;98645.22;5053377;28;20360;-75
2022/01/13 12:15:15;;;;;;;;;;;;;;;2.91;65.50;98638.50;5049092;28;19956;-74
2022/01/13 12:17:50;;;;;;;;;;;;;;;2.87;66.79;98637.91;5041246;28;19960;-74
2022/01/13 12:20:25;;;;;;;;;;;;;;;2.82;66.07;98634.84;5059273;28;19973;-74
2022/01/13 12:23:02;;;;;;;;;;;;;;;2.87;64.40;98631.88;5066137;28;19963;-74
2022/01/13 12:25:32;;;;;;;;;;;;;;;2.90;65.68;98636.84;5046254;28;19974;-74
2022/01/13 12:28:10;;;;;;;;;;;;;;;2.87;65.08;98632.72;5052928;28;19956;-74
2022/01/13 12:30:36;;;;;;;;;;;;;;;2.90;66.61;98634.25;5053089;28;20422;-74
2022/01/13 12:33:07;;;;;;;;;;;;;;;2.94;66.72;98630.47;5046013;28;19960;-74
2022/01/13 12:35:33;;;;;;;;;;;;;;;2.97;66.42;98623.31;5055627;28;19956;-74
2022/01/13 12:38:10;;;;;;;;;;;;;;;2.99;66.81;98624.00;5063224;28;20025;-75
2022/01/13 12:40:40;;;;;;;;;;;;;;;3.05;67.11;98620.16;5020306;28;19968;-73
2022/01/13 12:43:21;;;;;;;;;;;;;;;3.10;66.62;98612.81;5056151;28;19955;-74
2022/01/13 12:45:47;;;;;;;;;;;;;;;3.15;66.64;98604.69;5061070;28;19954;-74
2022/01/13 12:48:13;;;;;;;;;;;;;;;3.23;66.96;98604.94;5056589;28;19962;-74
2022/01/13 12:50:44;;;;;;;;;;;;;;;3.28;65.54;98604.59;5066031;28;19987;-74
2022/01/13 12:53:12;;;;;;;;;;;;;;;3.24;66.89;98598.81;5058669;28;19969;-74
2022/01/13 12:55:42;;;;;;;;;;;;;;;3.28;66.52;98595.03;5036762;28;20381;-73
2022/01/13 12:58:09;;;;;;;;;;;;;;;3.30;66.74;98585.38;5055910;28;19964;-74
2022/01/13 13:00:35;;;;;;;;;;;;;;;3.38;66.99;98590.78;5032982;28;20339;-74
2022/01/13 13:03:06;;;;;;;;;;;;;;;3.48;66.92;98590.88;5066625;28;19965;-74
2022/01/13 13:05:32;;;;;;;;;;;;;;;3.51;66.46;98582.03;5056815;28;19956;-74
2022/01/13 13:07:58;;;;;;;;;;;;;;;3.47;66.86;98583.25;5054302;28;19957;-74
2022/01/13 13:10:24;;;;;;;;;;;;;;;3.42;66.85;98588.78;5052057;28;20394;-74
2022/01/13 13:12:53;;;;;;;;;;;;;;;3.38;66.97;98588.22;5055633;28;19997;-74